Details From FQPB - Pemba
To HTZA - Zanzibar
Flight Number -
Tags Routegen Generated
Created
Modified
Stats Distance 413 nm / 764 km
Max Altitude 25,000 ft / 7,620 m
Waypoints 7
Social Downloads 1
Likes 0
Share VATSIM

Download

Looking for another format? Having issues loading an existing format? Contact us
Advertisement - Login to hide

Notes

Departing runway 34 FQPB. Arriving runway 17 HTZA. Advanced Generation Settings: Turn accuracy: 20 Altitude: 25000ft Smoothed angles: True Runway changes allowed: True Calculation order: Arrival --> Departure --> Intermediates Multipass intermediates: True

Route

FQPB -12.92_+040.50 -11.27_+040.18 -09.63_+039.86 -07.98_+039.55 -06.31_+039.23 HTZA

ID Type Via Altitude Latitude Longitude Leg Dist Tot Dist Heading (true) Name
O FQPB APT - 0 ft / 0 m -12.98563˚ 40.52208˚ - 0 nm - PEMBA
-12.92_+040.50 LATLON - 25,000 ft / 7,620 m -12.91731˚ 40.49761˚ 4 nm 4 nm 341° / 341° -
-11.27_+040.18 LATLON - 25,000 ft / 7,620 m -11.27199˚ 40.17688˚ 100 nm 104 nm 349° / 349° -
-09.63_+039.86 LATLON - 25,000 ft / 7,620 m -9.62671˚ 39.86099˚ 100 nm 205 nm 349° / 349° -
-07.98_+039.55 LATLON - 25,000 ft / 7,620 m -7.98115˚ 39.54816˚ 100 nm 306 nm 349° / 349° -
-06.31_+039.23 LATLON - 180 ft / 55 m -6.30507˚ 39.23327˚ 102 nm 408 nm 349° / 349° -
O HTZA APT - 0 ft / 0 m -6.23307˚ 39.22600˚ 4 nm 412 nm 354° / 354° -

Altitude Profile

Advertisement - Login to hide

Weather


0- 5 10 15 20 25 30 35+ Temperature / ° C

Clouds and Precipitation
Forecast for 2018-05-28 00:00 UTC. Updated 4 hours ago

Ground ~20,000 ft ~40,000 ft Winds

FQPB

Details ICAO FQPB (POL)
Name PEMBA
Region Mozambique
Timezone Africa/Maputo (UTC+2.0)
Stats Elevation 331 ft / 101 m (AMSL)
Location -12.990248° 40.522720°
Runways 2
Magnetic Variation 6.724° W

METAR

FQPB 280300Z 24009KT 9999 FEW020 22/21 Q1018

Decode

TAF

TAF FQPB 271600Z 2718/2818 21008KT 9999 SCT020 BECMG 2812/2814 14012KT TN22/2803Z TX30/2813Z

Decode

Departure Runways

ID Width Length Bearing (true) Bearing (mag) Surface Threshold Offset Overrun Length
08 98 ft / 30 m 2,631 ft / 802 m 76.61° 83.33° Asphalt 0 ft / 0 m 0 ft / 0 m
17 148 ft / 45 m 5,939 ft / 1,810 m 160.76° 167.48° Asphalt 0 ft / 0 m 0 ft / 0 m
26 98 ft / 30 m 2,631 ft / 802 m 256.61° 263.33° Asphalt 0 ft / 0 m 0 ft / 0 m
35 148 ft / 45 m 5,939 ft / 1,810 m 340.76° 347.48° Asphalt 0 ft / 0 m 0 ft / 0 m

HTZA

Details ICAO HTZA (ZNZ)
Name ZANZIBAR
Region Tanzania
Timezone Africa/Dar_es_Salaam (UTC+3.0)
Stats Elevation 54 ft / 16 m (AMSL)
Location -6.222024° 39.224885°
Runways 1
Magnetic Variation 1.805° W

METAR

Not found

TAF

TAF TAF HTZA 272300Z 2800/2824 00000KT 9999 FEW016 BECMG 2803/2805 22010KT BKN016 BECMG 2810/2812 15010KT SCT022

Decode

Destination Runways

ID Width Length Bearing (true) Bearing (mag) Surface Threshold Offset Overrun Length
18 148 ft / 45 m 8,100 ft / 2,469 m 174.27° 176.08° Asphalt 0 ft / 0 m 0 ft / 0 m
36 148 ft / 45 m 8,100 ft / 2,469 m 354.27° 356.08° Asphalt 0 ft / 0 m 0 ft / 0 m